Time;durP1;ratioP1;P1;durP2;ratioP2;P2;SDS_P1;SDS_P2;PMS_P1;PMS_P2;Temp;Humidity;BMP_temperature;BMP_pressure;BME280_temperature;BME280_humidity;BME280_pressure;Samples;Min_cycle;Max_cycle;Signal;HPM_P1;HPM_P2
2021/08/05 00:00:26;;;;;;;1.23;1.10;;;;;;;22.80;52.63;99208.00;4975323;28;20105;-85
2021/08/05 00:02:53;;;;;;;1.48;1.00;;;;;;;22.71;52.62;99212.59;4975143;28;20035;-84
2021/08/05 00:05:20;;;;;;;1.48;1.33;;;;;;;22.77;52.25;99219.00;4974967;28;20074;-85
2021/08/05 00:07:46;;;;;;;5.93;1.30;;;;;;;22.80;52.55;99222.16;4975121;28;20109;-84
2021/08/05 00:10:14;;;;;;;1.20;1.10;;;;;;;22.83;52.37;99213.78;4974886;28;20045;-84
2021/08/05 00:12:41;;;;;;;2.08;1.45;;;;;;;22.93;52.40;99219.72;4975209;28;20038;-84
2021/08/05 00:15:08;;;;;;;2.25;1.95;;;;;;;22.87;52.11;99209.78;4974255;28;20616;-86
2021/08/05 00:17:35;;;;;;;1.63;1.52;;;;;;;22.89;53.05;99215.75;4974703;28;20039;-84
2021/08/05 00:20:03;;;;;;;1.40;1.30;;;;;;;22.89;52.23;99201.66;4974553;28;20042;-84
2021/08/05 00:22:29;;;;;;;1.80;1.65;;;;;;;22.91;52.08;99195.16;4974883;28;20482;-83
2021/08/05 00:24:56;;;;;;;0.95;0.90;;;;;;;22.92;51.48;99188.84;4974925;28;20565;-84
2021/08/05 00:27:23;;;;;;;1.67;1.50;;;;;;;22.92;51.85;99188.84;4974944;28;20038;-85
2021/08/05 00:29:50;;;;;;;1.85;1.35;;;;;;;22.89;51.46;99188.38;4974553;28;20653;-84
2021/08/05 00:32:16;;;;;;;2.03;1.27;;;;;;;22.87;51.79;99188.53;4980267;28;20074;-84
2021/08/05 00:34:43;;;;;;;2.00;1.27;;;;;;;22.98;51.45;99198.72;4982955;28;20043;-85
2021/08/05 00:37:10;;;;;;;3.63;1.50;;;;;;;22.91;51.46;99192.50;4982877;28;20054;-82
2021/08/05 00:39:37;;;;;;;3.00;1.10;;;;;;;22.86;52.05;99194.84;4982413;28;20053;-85
2021/08/05 00:42:04;;;;;;;1.25;1.15;;;;;;;22.83;51.42;99195.19;4974651;28;20114;-85
2021/08/05 00:44:31;;;;;;;1.38;1.20;;;;;;;22.83;51.77;99189.06;4973682;28;20043;-85
2021/08/05 00:46:58;;;;;;;1.65;1.52;;;;;;;23.00;52.10;99193.22;4975728;28;20051;-85
2021/08/05 00:49:25;;;;;;;13.55;1.60;;;;;;;22.77;53.59;99187.94;4973140;28;20061;-85
2021/08/05 00:51:52;;;;;;;1.45;1.35;;;;;;;22.60;53.47;99187.28;4973620;28;20141;-85
2021/08/05 00:54:19;;;;;;;1.42;1.33;;;;;;;22.26;54.37;99187.72;4973353;28;20113;-85
2021/08/05 00:56:45;;;;;;;2.40;1.55;;;;;;;22.22;54.84;99194.41;4974510;28;20043;-86
2021/08/05 00:59:13;;;;;;;5.45;1.60;;;;;;;22.28;54.72;99191.03;4972710;28;20130;-85
2021/08/05 01:01:43;;;;;;;1.50;1.40;;;;;;;22.40;55.35;99192.25;4973241;28;20050;-85
2021/08/05 01:04:12;;;;;;;1.65;1.40;;;;;;;22.22;54.71;99183.78;4972859;28;20142;-86
2021/08/05 01:06:57;;;;;;;2.28;1.98;;;;;;;22.30;55.00;99189.00;4973262;28;20090;-86
2021/08/05 01:09:46;;;;;;;2.47;1.42;;;;;;;22.25;55.03;99194.03;4974587;28;20053;-86
2021/08/05 01:12:23;;;;;;;2.13;1.40;;;;;;;22.00;55.89;99185.41;4973221;28;20047;-85
2021/08/05 01:15:05;;;;;;;2.70;1.85;;;;;;;22.00;55.84;99187.19;4974024;28;20471;-85
2021/08/05 01:17:36;;;;;;;2.00;1.45;;;;;;;21.98;56.10;99171.47;4973540;28;20044;-87
2021/08/05 01:20:06;;;;;;;1.77;1.55;;;;;;;22.26;55.24;99178.91;4974105;28;20467;-86
2021/08/05 01:22:41;;;;;;;2.05;1.67;;;;;;;22.35;56.01;99178.69;4973273;28;20506;-87
2021/08/05 01:25:39;;;;;;;2.40;1.60;;;;;;;22.46;55.32;99180.91;4972334;28;20050;-87
2021/08/05 01:28:05;;;;;;;6.25;2.03;;;;;;;22.27;55.43;99186.72;4974464;28;20383;-89
2021/08/05 01:30:35;;;;;;;1.60;1.42;;;;;;;21.93;56.77;99190.56;4972835;28;20047;-87
2021/08/05 01:33:02;;;;;;;1.77;1.50;;;;;;;21.79;57.24;99193.97;4973267;28;20082;-88
2021/08/05 01:35:30;;;;;;;1.88;1.48;;;;;;;21.60;57.98;99189.09;4974107;28;20043;-87
2021/08/05 01:37:59;;;;;;;2.70;1.40;;;;;;;21.61;58.08;99196.03;4972627;28;20409;-88
2021/08/05 01:40:27;;;;;;;2.92;1.65;;;;;;;21.62;58.36;99187.06;4972753;28;20098;-87
2021/08/05 01:42:56;;;;;;;4.55;2.22;;;;;;;21.58;58.30;99199.88;4972865;28;20130;-88
2021/08/05 01:45:24;;;;;;;3.60;1.45;;;;;;;21.71;57.70;99201.97;4987947;28;20051;-88
2021/08/05 01:47:51;;;;;;;1.73;1.63;;;;;;;21.71;57.83;99201.97;4974132;28;20093;-88
2021/08/05 01:50:19;;;;;;;2.67;2.17;;;;;;;21.68;57.92;99203.16;4973999;28;20557;-88
2021/08/05 01:52:47;;;;;;;1.83;1.67;;;;;;;21.74;57.87;99204.28;4974027;28;20457;-88
2021/08/05 01:55:15;;;;;;;3.33;2.92;;;;;;;21.71;59.83;99208.09;4971747;28;20569;-89
2021/08/05 01:57:42;;;;;;;5.00;4.60;;;;;;;21.87;62.29;99201.03;4972153;28;20497;-88
2021/08/05 02:00:10;;;;;;;8.88;6.28;;;;;;;21.82;64.42;99206.03;4972472;28;20039;-88
2021/08/05 02:02:41;;;;;;;8.73;7.47;;;;;;;21.68;66.67;99207.63;4975097;28;20046;-87
2021/08/05 02:05:20;;;;;;;12.27;9.43;;;;;;;22.02;65.42;99201.13;4977453;28;20042;-88
2021/08/05 02:08:03;;;;;;;18.05;11.93;;;;;;;21.45;70.16;99204.88;4992039;28;20520;-85
2021/08/05 02:10:37;;;;;;;16.92;15.25;;;;;;;21.54;71.48;99195.09;4975948;28;20081;-84
2021/08/05 02:13:14;;;;;;;15.93;14.33;;;;;;;21.30;73.35;99194.16;4975751;28;20075;-83
2021/08/05 02:16:03;;;;;;;17.83;15.32;;;;;;;21.17;74.31;99189.38;4975664;28;20078;-83
2021/08/05 02:18:32;;;;;;;17.38;15.45;;;;;;;21.06;74.82;99175.66;4975701;28;20049;-82
2021/08/05 02:21:01;;;;;;;18.80;16.98;;;;;;;21.01;76.13;99185.94;4975399;28;20138;-88
2021/08/05 02:23:30;;;;;;;21.85;18.45;;;;;;;20.78;77.43;99173.41;4975975;28;20051;-89
2021/08/05 02:25:58;;;;;;;20.88;17.73;;;;;;;20.74;77.62;99171.28;4975423;28;20070;-89
2021/08/05 02:28:28;;;;;;;17.40;15.70;;;;;;;20.77;77.77;99166.44;4976996;28;20042;-89
2021/08/05 02:30:57;;;;;;;17.50;15.70;;;;;;;20.69;78.04;99169.13;4975179;28;20045;-88
2021/08/05 02:33:27;;;;;;;18.45;16.55;;;;;;;20.60;78.34;99163.00;4977177;28;20077;-89
2021/08/05 02:35:54;;;;;;;18.77;16.17;;;;;;;20.64;78.18;99156.38;4975472;28;20038;-89
2021/08/05 02:38:22;;;;;;;20.45;17.05;;;;;;;20.64;78.60;99152.91;4975716;28;20064;-89
2021/08/05 02:40:54;;;;;;;18.98;16.88;;;;;;;20.68;78.49;99162.19;4975431;28;20633;-89
2021/08/05 02:43:25;;;;;;;20.60;18.20;;;;;;;20.51;79.52;99166.66;4977174;28;20039;-88
2021/08/05 02:45:52;;;;;;;20.70;18.33;;;;;;;20.46;80.33;99162.84;4976903;28;20039;-87
2021/08/05 02:48:20;;;;;;;20.88;18.88;;;;;;;20.49;80.10;99173.09;4976282;28;20046;-87
2021/08/05 02:50:47;;;;;;;21.73;19.45;;;;;;;20.51;80.14;99169.31;4976428;28;20071;-84
2021/08/05 02:53:15;;;;;;;22.25;19.33;;;;;;;20.30;81.33;99167.13;4974945;28;20442;-84
2021/08/05 02:55:43;;;;;;;20.55;18.45;;;;;;;20.34;81.63;99171.06;4976533;28;20137;-83
2021/08/05 02:58:12;;;;;;;22.73;20.42;;;;;;;20.25;82.12;99166.78;4990916;28;20467;-84
2021/08/05 03:00:39;;;;;;;22.58;19.33;;;;;;;20.35;81.91;99171.94;4976492;28;20126;-83
2021/08/05 03:03:06;;;;;;;22.02;19.83;;;;;;;20.31;82.09;99166.13;4974682;28;20116;-84
2021/08/05 03:05:33;;;;;;;20.95;18.73;;;;;;;20.24;82.28;99159.00;4975781;28;20066;-83
2021/08/05 03:08:00;;;;;;;22.27;19.98;;;;;;;20.15;82.68;99159.00;4975602;28;20070;-84
2021/08/05 03:10:27;;;;;;;20.98;18.77;;;;;;;20.23;82.36;99152.88;4976196;28;20043;-84
2021/08/05 03:12:54;;;;;;;21.17;18.98;;;;;;;20.18;82.51;99155.19;4977299;28;20445;-84
2021/08/05 03:15:20;;;;;;;24.00;21.48;;;;;;;20.23;82.64;99147.59;4977480;28;20039;-83
2021/08/05 03:17:48;;;;;;;24.60;22.23;;;;;;;20.31;82.31;99152.91;4986430;28;20047;-83
2021/08/05 03:20:18;;;;;;;25.00;22.42;;;;;;;20.27;82.43;99154.22;4988505;28;20047;-85
2021/08/05 03:22:45;;;;;;;25.75;22.77;;;;;;;20.35;81.95;99143.66;4989293;28;20477;-81
2021/08/05 03:25:12;;;;;;;26.65;23.95;;;;;;;20.22;82.74;99150.41;4988332;28;20066;-83
2021/08/05 03:27:39;;;;;;;26.02;23.15;;;;;;;20.26;82.48;99144.63;4987382;28;20106;-83
2021/08/05 03:30:09;;;;;;;25.52;22.88;;;;;;;20.31;82.69;99152.91;4983052;28;20042;-86
2021/08/05 03:32:36;;;;;;;24.08;21.58;;;;;;;20.33;82.29;99152.72;4979271;28;20046;-84
2021/08/05 03:35:03;;;;;;;25.50;22.65;;;;;;;20.31;82.38;99158.19;4976299;28;20398;-92
2021/08/05 03:37:30;;;;;;;25.50;22.88;;;;;;;20.40;81.70;99157.22;4978891;28;20113;-89
2021/08/05 03:39:57;;;;;;;25.30;22.25;;;;;;;20.33;81.82;99164.13;4976841;28;20458;-92
2021/08/05 03:42:24;;;;;;;24.92;20.88;;;;;;;20.19;82.71;99170.09;4976217;28;20042;-90
2021/08/05 03:44:51;;;;;;;32.17;21.48;;;;;;;20.25;82.31;99181.84;4976039;28;20162;-88
2021/08/05 03:47:19;;;;;;;26.73;22.45;;;;;;;20.33;81.88;99187.97;4968105;28;20045;-95
2021/08/05 03:49:46;;;;;;;25.65;21.05;;;;;;;20.26;82.18;99179.03;4978219;28;20088;-94
2021/08/05 03:52:14;;;;;;;23.42;21.05;;;;;;;20.26;82.31;99184.31;4975456;28;20051;-93
2021/08/05 03:54:59;;;;;;;23.15;20.73;;;;;;;20.34;81.91;99178.19;4974417;28;20039;-91
2021/08/05 03:57:25;;;;;;;24.92;22.42;;;;;;;20.26;82.37;99181.69;4973831;28;20067;-87
2021/08/05 03:59:52;;;;;;;22.63;20.02;;;;;;;20.52;81.00;99175.44;4972039;28;20051;-85
2021/08/05 04:02:19;;;;;;;24.15;19.58;;;;;;;20.41;81.53;99174.75;4969388;28;20118;-88
2021/08/05 04:04:46;;;;;;;23.92;20.48;;;;;;;20.48;81.17;99176.75;4968380;28;20130;-87
2021/08/05 04:07:17;;;;;;;21.08;18.80;;;;;;;20.42;81.60;99175.56;4969921;28;20446;-88
2021/08/05 04:09:44;;;;;;;24.10;20.65;;;;;;;20.25;82.35;99171.25;4971653;28;20426;-84
2021/08/05 04:12:11;;;;;;;22.38;19.55;;;;;;;20.57;80.65;99175.75;4972584;28;20051;-84
2021/08/05 04:14:37;;;;;;;23.23;18.52;;;;;;;20.48;80.76;99166.97;4965628;28;20038;-83
2021/08/05 04:17:07;;;;;;;23.05;19.55;;;;;;;20.29;82.26;99168.09;4966612;28;20113;-84
2021/08/05 04:19:34;;;;;;;25.98;19.52;;;;;;;20.29;82.09;99165.44;4968097;28;20569;-83
2021/08/05 04:22:03;;;;;;;22.58;20.25;;;;;;;20.20;82.70;99171.75;4964402;28;20047;-82
2021/08/05 04:24:30;;;;;;;23.02;19.15;;;;;;;20.34;82.10;99171.06;4968831;28;20099;-83
2021/08/05 04:26:57;;;;;;;24.80;19.60;;;;;;;20.34;82.17;99171.06;4965574;28;20491;-79
2021/08/05 04:29:24;;;;;;;21.67;19.33;;;;;;;20.42;81.43;99168.44;4968832;28;20066;-83
2021/08/05 04:31:51;;;;;;;22.13;19.10;;;;;;;20.56;80.87;99164.34;4969345;28;20074;-84
2021/08/05 04:34:18;;;;;;;22.92;20.52;;;;;;;20.29;82.06;99168.09;4971516;28;20398;-83
2021/08/05 04:36:44;;;;;;;24.95;20.85;;;;;;;20.18;83.07;99165.78;4966654;28;20036;-84
2021/08/05 04:39:11;;;;;;;22.55;19.67;;;;;;;20.27;82.15;99170.09;4967447;28;20039;-82
2021/08/05 04:41:38;;;;;;;22.65;20.05;;;;;;;20.49;80.91;99167.81;4968296;28;20097;-82
2021/08/05 04:44:05;;;;;;;21.88;19.55;;;;;;;20.40;81.25;99170.44;4962649;28;20114;-83
2021/08/05 04:46:32;;;;;;;23.35;20.33;;;;;;;20.64;79.99;99166.16;4958050;28;20438;-85
2021/08/05 04:49:02;;;;;;;26.95;20.83;;;;;;;20.56;80.33;99166.13;4971723;28;20066;-84
2021/08/05 04:51:33;;;;;;;43.40;21.05;;;;;;;20.72;79.49;99163.50;4966161;28;20036;-83
2021/08/05 04:54:02;;;;;;;22.77;18.77;;;;;;;20.72;78.86;99160.00;4970416;28;20093;-83
2021/08/05 04:56:32;;;;;;;21.10;18.73;;;;;;;20.77;78.37;99150.56;4969042;28;20047;-81
2021/08/05 04:59:00;;;;;;;20.52;17.92;;;;;;;20.76;78.54;99151.56;4969670;28;20038;-82
2021/08/05 05:01:26;;;;;;;23.25;18.67;;;;;;;20.56;79.38;99163.50;4972361;28;20035;-81
2021/08/05 05:03:54;;;;;;;18.55;16.75;;;;;;;20.68;79.02;99154.22;4967298;28;20042;-82
2021/08/05 05:06:20;;;;;;;20.38;17.05;;;;;;;20.98;77.60;99157.97;4970445;28;20046;-80
2021/08/05 05:08:47;;;;;;;20.13;15.52;;;;;;;21.04;76.89;99161.75;4964850;28;20514;-83
2021/08/05 05:11:14;;;;;;;18.33;14.60;;;;;;;21.26;75.92;99163.69;4979914;28;20031;-86
2021/08/05 05:13:41;;;;;;;16.23;14.32;;;;;;;21.29;75.19;99160.69;4976858;28;20105;-84
2021/08/05 05:16:08;;;;;;;16.17;14.63;;;;;;;21.34;75.28;99161.03;4973179;28;20043;-85
2021/08/05 05:18:35;;;;;;;17.70;13.30;;;;;;;21.57;74.08;99152.28;4973554;28;20050;-92
2021/08/05 05:21:02;;;;;;;20.42;15.82;;;;;;;21.50;74.18;99156.66;4975748;28;20469;-91
2021/08/05 05:23:29;;;;;;;16.33;14.50;;;;;;;21.71;73.34;99154.22;4975274;28;20133;-93
2021/08/05 05:25:56;;;;;;;14.85;13.35;;;;;;;21.93;72.23;99144.63;4975514;28;20383;-91
2021/08/05 05:28:23;;;;;;;15.70;13.63;;;;;;;21.98;72.13;99151.06;4974599;28;20039;-90
2021/08/05 05:30:50;;;;;;;18.63;14.00;;;;;;;22.08;71.42;99150.81;4973900;28;20047;-89
2021/08/05 05:33:17;;;;;;;14.40;12.85;;;;;;;21.95;71.62;99145.28;4975151;28;20055;-94
2021/08/05 05:35:46;;;;;;;13.88;12.48;;;;;;;22.08;71.43;99150.00;4984229;28;20386;-91
2021/08/05 05:38:13;;;;;;;13.68;11.88;;;;;;;22.28;70.07;99151.22;4978175;28;20050;-88
2021/08/05 05:40:40;;;;;;;13.90;11.05;;;;;;;22.53;69.29;99157.16;4975957;28;20035;-84
2021/08/05 05:43:08;;;;;;;16.15;13.15;;;;;;;22.51;69.22;99158.31;4977218;28;20047;-84
2021/08/05 05:45:36;;;;;;;14.80;11.82;;;;;;;22.29;69.66;99167.97;4976954;28;20077;-87
2021/08/05 05:48:04;;;;;;;16.58;11.07;;;;;;;22.68;68.04;99167.78;4976923;28;20470;-84
2021/08/05 05:50:31;;;;;;;13.43;12.05;;;;;;;22.44;68.98;99164.34;4977619;28;20094;-90
2021/08/05 05:52:59;;;;;;;18.75;11.45;;;;;;;22.40;68.88;99168.34;4977080;28;20439;-87
2021/08/05 05:55:26;;;;;;;17.45;12.48;;;;;;;22.63;68.06;99170.97;4977664;28;20053;-87
2021/08/05 05:57:53;;;;;;;16.92;11.07;;;;;;;22.50;68.46;99160.16;4976910;28;20035;-87
2021/08/05 06:00:20;;;;;;;14.98;10.60;;;;;;;22.65;68.51;99165.50;4976982;28;20042;-85
2021/08/05 06:02:47;;;;;;;11.25;10.10;;;;;;;22.40;69.07;99171.00;4976839;28;20047;-88
2021/08/05 06:05:14;;;;;;;11.93;10.52;;;;;;;22.42;68.75;99170.81;4976487;28;20125;-84
2021/08/05 06:07:45;;;;;;;18.65;11.20;;;;;;;22.31;69.50;99165.94;4977386;28;20038;-83
2021/08/05 06:10:15;;;;;;;13.55;10.25;;;;;;;22.40;69.50;99163.03;4970576;28;20043;-84
2021/08/05 06:12:42;;;;;;;11.63;10.35;;;;;;;22.61;68.77;99154.41;4967887;28;20047;-84
2021/08/05 06:15:09;;;;;;;12.73;11.18;;;;;;;22.61;68.62;99162.38;4971249;28;20039;-84
2021/08/05 06:17:41;;;;;;;12.32;10.65;;;;;;;22.81;67.98;99162.69;4975374;28;20043;-83
2021/08/05 06:20:11;;;;;;;11.85;9.48;;;;;;;23.20;66.14;99173.06;4974778;28;20039;-84
2021/08/05 06:22:39;;;;;;;15.65;11.77;;;;;;;22.95;67.59;99164.53;4975340;28;20072;-84
2021/08/05 06:25:07;;;;;;;13.48;11.15;;;;;;;23.16;66.54;99169.13;4975256;28;20043;-84
2021/08/05 06:27:35;;;;;;;13.40;9.88;;;;;;;23.31;65.97;99177.09;4976204;28;20397;-84
2021/08/05 06:30:03;;;;;;;12.60;9.20;;;;;;;23.13;66.33;99172.16;4975166;28;20073;-85
2021/08/05 06:32:30;;;;;;;13.23;9.68;;;;;;;22.85;67.37;99163.13;4971499;28;20490;-91
2021/08/05 06:34:57;;;;;;;10.93;9.57;;;;;;;22.98;67.56;99174.00;4990238;28;20426;-96
2021/08/05 06:37:26;;;;;;;11.73;10.18;;;;;;;23.17;66.14;99168.16;4986286;28;20077;-94
2021/08/05 06:39:53;;;;;;;11.65;10.50;;;;;;;23.40;66.03;99178.66;4975954;28;20035;-82
2021/08/05 06:42:21;;;;;;;14.07;11.40;;;;;;;22.96;67.39;99178.69;4975660;28;20051;-83
2021/08/05 06:44:48;;;;;;;13.85;12.50;;;;;;;22.56;68.69;99185.97;4976681;28;20470;-82
2021/08/05 06:47:15;;;;;;;14.48;12.82;;;;;;;22.73;68.42;99186.66;4974862;28;20055;-85
2021/08/05 06:49:43;;;;;;;17.25;14.90;;;;;;;22.60;69.05;99191.78;4975956;28;20090;-82
2021/08/05 06:52:10;;;;;;;15.38;13.77;;;;;;;22.43;70.17;99185.78;4974504;28;20098;-83
2021/08/05 06:54:36;;;;;;;16.30;14.30;;;;;;;22.47;69.80;99189.69;4974233;28;20533;-82
2021/08/05 06:57:03;;;;;;;15.65;14.07;;;;;;;22.78;68.91;99192.25;4974174;28;20050;-82
2021/08/05 06:59:30;;;;;;;14.38;12.82;;;;;;;23.09;67.39;99196.63;4974026;28;20094;-80
2021/08/05 07:01:57;;;;;;;15.68;14.13;;;;;;;23.00;68.18;99198.53;4988584;28;20126;-80
2021/08/05 07:04:24;;;;;;;17.15;13.95;;;;;;;22.86;68.59;99192.19;4970301;28;20053;-82
2021/08/05 07:06:50;;;;;;;17.67;14.50;;;;;;;22.74;69.55;99191.81;4974308;28;20082;-79
2021/08/05 07:09:17;;;;;;;21.23;15.23;;;;;;;22.70;69.87;99202.97;4974801;28;20039;-81
2021/08/05 07:11:44;;;;;;;17.15;13.57;;;;;;;22.81;68.53;99191.09;4975697;28;20497;-80
2021/08/05 07:14:12;;;;;;;19.55;14.30;;;;;;;22.56;69.26;99191.28;4974665;28;20059;-82
2021/08/05 07:16:39;;;;;;;16.23;13.48;;;;;;;22.76;69.11;99191.63;4974687;28;20039;-80
2021/08/05 07:19:06;;;;;;;17.90;13.35;;;;;;;22.76;68.98;99202.25;4974994;28;20053;-82
2021/08/05 07:21:32;;;;;;;14.25;11.38;;;;;;;23.10;68.03;99195.63;4974103;28;20054;-82
2021/08/05 07:23:59;;;;;;;21.77;13.73;;;;;;;22.98;68.42;99196.06;4976132;28;20050;-85
2021/08/05 07:26:27;;;;;;;18.73;15.68;;;;;;;23.11;68.20;99208.72;4972490;28;20121;-83
2021/08/05 07:28:54;;;;;;;15.88;14.15;;;;;;;22.96;67.69;99198.09;4975151;28;20051;-76
2021/08/05 07:31:20;;;;;;;17.52;14.95;;;;;;;22.84;68.87;99194.19;4973974;28;20065;-81
2021/08/05 07:33:52;;;;;;;17.50;15.50;;;;;;;23.23;68.33;99190.50;4974580;28;20046;-84
2021/08/05 07:36:19;;;;;;;19.35;17.08;;;;;;;23.13;68.06;99190.78;4974314;28;20039;-84
2021/08/05 07:38:46;;;;;;;23.25;18.75;;;;;;;22.84;69.36;99196.03;4974622;28;20038;-83
2021/08/05 07:41:13;;;;;;;18.65;16.55;;;;;;;22.72;69.85;99185.84;4965365;28;20958;-81
2021/08/05 07:43:40;;;;;;;18.90;16.90;;;;;;;22.98;69.28;99192.59;4971701;28;20069;-82
2021/08/05 07:46:07;;;;;;;16.92;14.98;;;;;;;22.88;68.74;99190.19;4970438;28;20055;-82
2021/08/05 07:48:34;;;;;;;18.13;16.20;;;;;;;22.82;69.59;99188.25;4970780;28;20046;-81
2021/08/05 07:51:01;;;;;;;19.13;17.23;;;;;;;22.76;69.88;99183.66;4972319;28;20047;-82
2021/08/05 07:53:28;;;;;;;19.02;16.90;;;;;;;22.90;69.87;99198.81;4970818;28;20383;-82
2021/08/05 07:55:55;;;;;;;19.08;16.10;;;;;;;22.98;69.33;99201.41;4970741;28;20093;-82
2021/08/05 07:58:22;;;;;;;18.42;16.23;;;;;;;22.77;69.79;99200.41;4973102;28;20062;-82
2021/08/05 08:00:48;;;;;;;19.20;17.30;;;;;;;23.06;69.20;99202.31;4972592;28;20035;-82
2021/08/05 08:03:16;;;;;;;18.58;16.65;;;;;;;22.86;69.15;99202.81;4971299;28;20086;-81
2021/08/05 08:05:45;;;;;;;26.88;16.65;;;;;;;22.98;69.74;99212.03;4972314;28;20042;-81
2021/08/05 08:08:12;;;;;;;19.65;17.58;;;;;;;23.06;69.05;99210.28;4971330;28;20039;-81
2021/08/05 08:10:39;;;;;;;18.58;16.48;;;;;;;22.70;71.69;99209.09;4972124;28;20383;-82
2021/08/05 08:13:21;;;;;;;20.23;18.08;;;;;;;23.07;70.39;99204.81;4971482;28;20074;-84
2021/08/05 08:15:48;;;;;;;18.85;16.92;;;;;;;23.29;69.33;99202.25;4970977;28;20090;-81
2021/08/05 08:18:16;;;;;;;19.67;16.40;;;;;;;23.24;69.11;99200.94;4971672;28;20130;-80
2021/08/05 08:20:44;;;;;;;18.52;16.75;;;;;;;23.16;69.23;99205.53;4970245;28;20042;-80
2021/08/05 08:23:11;;;;;;;17.40;15.70;;;;;;;23.05;69.71;99200.66;4972238;28;20474;-79
2021/08/05 08:25:38;;;;;;;18.02;16.13;;;;;;;22.78;71.01;99205.53;4971281;28;20094;-80
2021/08/05 08:28:06;;;;;;;19.60;16.60;;;;;;;22.78;70.98;99200.22;4969732;28;20039;-80
2021/08/05 08:30:34;;;;;;;17.40;15.57;;;;;;;22.92;70.29;99191.50;4969884;28;20498;-80
2021/08/05 08:33:01;;;;;;;23.33;17.30;;;;;;;22.90;70.51;99187.34;4968106;28;20051;-80
2021/08/05 08:35:28;;;;;;;19.95;17.88;;;;;;;22.97;70.36;99199.75;4966989;28;20121;-82
2021/08/05 08:37:54;;;;;;;17.25;15.52;;;;;;;22.93;70.11;99198.44;4986211;28;20521;-82
2021/08/05 08:40:22;;;;;;;18.00;16.25;;;;;;;23.12;69.43;99202.44;4971204;28;21007;-79
2021/08/05 08:42:49;;;;;;;20.70;18.63;;;;;;;23.29;68.66;99200.41;4972563;28;20505;-79
2021/08/05 08:45:17;;;;;;;17.08;15.40;;;;;;;23.48;68.04;99196.34;4972065;28;20125;-79
2021/08/05 08:47:53;;;;;;;20.88;17.38;;;;;;;23.36;69.06;99195.16;4970610;28;20047;-79
2021/08/05 08:50:25;;;;;;;18.90;17.00;;;;;;;22.96;69.89;99198.09;4972152;28;20034;-79
2021/08/05 08:52:57;;;;;;;19.58;17.77;;;;;;;23.21;70.00;99195.16;4968775;28;20364;-78
2021/08/05 08:55:24;;;;;;;19.20;17.35;;;;;;;23.10;69.87;99192.97;4964976;28;20039;-79
2021/08/05 08:57:54;;;;;;;19.23;17.23;;;;;;;23.22;69.18;99188.84;4970421;28;20042;-79
2021/08/05 09:00:21;;;;;;;18.60;16.83;;;;;;;23.27;70.09;99199.75;4971136;28;20043;-80
2021/08/05 09:02:48;;;;;;;18.77;16.52;;;;;;;23.24;69.46;99189.50;4970806;28;20110;-79
2021/08/05 09:05:15;;;;;;;19.98;17.25;;;;;;;23.45;68.06;99197.56;4971355;28;20078;-80
2021/08/05 09:07:44;;;;;;;20.98;17.15;;;;;;;23.32;69.34;99189.38;4971688;28;20066;-80
2021/08/05 09:10:12;;;;;;;18.55;16.60;;;;;;;23.18;69.21;99190.22;4966875;28;20052;-79
2021/08/05 09:12:42;;;;;;;20.02;17.10;;;;;;;23.21;69.19;99189.84;4966056;28;20039;-79
2021/08/05 09:15:10;;;;;;;17.48;15.77;;;;;;;23.30;68.70;99193.25;4972014;28;20050;-81
2021/08/05 09:17:42;;;;;;;17.80;15.93;;;;;;;23.27;68.63;99202.41;4985430;28;20049;-80
2021/08/05 09:20:12;;;;;;;19.95;16.55;;;;;;;23.69;67.79;99182.31;4971565;28;20414;-80
2021/08/05 09:22:44;;;;;;;18.35;16.35;;;;;;;23.70;67.32;99179.47;4972899;28;20030;-80
2021/08/05 09:25:31;;;;;;;19.10;17.13;;;;;;;23.62;67.87;99176.88;4967766;28;20120;-81
2021/08/05 09:28:10;;;;;;;18.73;16.77;;;;;;;23.56;68.13;99176.81;4971769;28;20040;-80
2021/08/05 09:30:39;;;;;;;16.00;14.38;;;;;;;24.01;66.58;99179.19;4971451;28;20043;-79
2021/08/05 09:33:11;;;;;;;18.77;15.25;;;;;;;24.11;66.20;99175.41;4970264;28;20497;-79
2021/08/05 09:35:40;;;;;;;17.35;15.70;;;;;;;24.09;65.69;99166.78;4969735;28;20081;-79
2021/08/05 09:38:20;;;;;;;16.15;14.50;;;;;;;24.06;65.17;99181.28;4972036;28;20050;-79
2021/08/05 09:41:09;;;;;;;21.00;17.00;;;;;;;24.01;65.19;99165.88;4962770;28;20039;-84
2021/08/05 09:43:37;;;;;;;19.95;16.30;;;;;;;24.07;65.96;99172.28;4971661;28;20093;-79
2021/08/05 09:46:05;;;;;;;16.60;14.95;;;;;;;24.00;66.14;99172.22;4972496;28;20075;-79
2021/08/05 09:48:33;;;;;;;18.15;15.45;;;;;;;24.03;65.51;99160.38;4972702;28;20060;-82
2021/08/05 09:51:17;;;;;;;17.15;15.55;;;;;;;24.16;65.09;99163.16;4973572;28;20043;-80
2021/08/05 09:54:04;;;;;;;20.08;15.05;;;;;;;24.21;65.32;99160.75;4972564;28;20038;-81
2021/08/05 09:56:34;;;;;;;16.58;14.90;;;;;;;24.29;65.29;99162.47;4971982;28;20042;-83
2021/08/05 09:59:10;;;;;;;17.17;13.25;;;;;;;24.39;64.57;99167.47;4971990;28;20089;-83
2021/08/05 10:01:55;;;;;;;15.13;13.60;;;;;;;24.27;65.07;99159.97;4971057;28;20038;-84
2021/08/05 10:04:31;;;;;;;16.67;14.02;;;;;;;24.36;64.92;99162.56;4964921;28;20466;-82
2021/08/05 10:07:03;;;;;;;15.93;14.52;;;;;;;24.49;64.42;99152.00;4971321;28;20051;-81
2021/08/05 10:09:31;;;;;;;16.85;14.73;;;;;;;24.36;64.33;99155.38;4970535;28;20561;-82
2021/08/05 10:12:10;;;;;;;15.88;14.13;;;;;;;24.42;64.59;99145.81;4972152;28;20035;-78
2021/08/05 10:14:37;;;;;;;20.02;17.52;;;;;;;24.23;65.33;99139.25;4972606;28;20184;-81
2021/08/05 10:17:06;;;;;;;19.65;15.40;;;;;;;24.27;64.61;99138.69;4972933;28;20609;-82
2021/08/05 10:19:41;;;;;;;15.52;13.93;;;;;;;24.28;64.21;99134.19;4972365;28;20072;-82
2021/08/05 10:22:09;;;;;;;22.08;16.08;;;;;;;24.46;63.96;99128.44;4973486;28;20837;-81
2021/08/05 10:24:42;;;;;;;15.90;14.30;;;;;;;24.75;64.32;99136.22;4974602;28;20078;-80
2021/08/05 10:27:11;;;;;;;18.67;16.90;;;;;;;24.61;64.09;99133.63;4976758;28;20043;-79
2021/08/05 10:29:39;;;;;;;17.92;15.90;;;;;;;24.48;64.39;99132.53;4975547;28;20101;-82
2021/08/05 10:32:08;;;;;;;19.92;14.48;;;;;;;24.97;63.25;99139.63;4974466;28;20711;-83
2021/08/05 10:34:40;;;;;;;18.40;15.52;;;;;;;24.93;62.93;99135.72;4971571;28;20049;-80
2021/08/05 10:37:11;;;;;;;16.80;15.23;;;;;;;24.77;63.37;99136.03;4965782;28;20043;-79
2021/08/05 10:39:44;;;;;;;16.83;14.40;;;;;;;25.05;62.02;99128.81;4967392;28;20050;-79
2021/08/05 10:42:15;;;;;;;17.75;15.82;;;;;;;25.21;61.62;99129.53;4967789;28;20039;-79
2021/08/05 10:44:43;;;;;;;18.85;16.92;;;;;;;24.82;63.10;99130.91;4975590;28;20500;-81
2021/08/05 10:47:25;;;;;;;18.10;16.10;;;;;;;24.90;62.44;99128.09;4977728;28;20039;-81
2021/08/05 10:50:02;;;;;;;21.77;17.98;;;;;;;25.03;62.09;99130.84;4974252;28;20129;-85
2021/08/05 10:52:38;;;;;;;17.50;15.70;;;;;;;25.19;62.20;99128.91;4975058;28;20083;-82
2021/08/05 10:55:20;;;;;;;17.48;14.50;;;;;;;25.41;60.92;99121.59;4975559;28;20051;-82
2021/08/05 10:58:14;;;;;;;20.75;14.05;;;;;;;25.46;60.03;99125.34;4972775;28;20486;-81
2021/08/05 11:00:50;;;;;;;15.15;13.43;;;;;;;25.68;58.94;99125.22;4975148;28;20474;-81
2021/08/05 11:03:34;;;;;;;14.57;12.82;;;;;;;25.45;58.24;99126.34;4974175;28;20078;-79
2021/08/05 11:06:04;;;;;;;16.25;11.88;;;;;;;25.57;58.31;99130.09;4975616;28;20042;-80
2021/08/05 11:08:31;;;;;;;17.00;13.15;;;;;;;25.72;58.13;99116.56;4974944;28;20034;-86
2021/08/05 11:11:22;;;;;;;19.98;13.73;;;;;;;25.84;58.12;99109.66;4975363;28;20468;-83
2021/08/05 11:13:58;;;;;;;17.10;13.60;;;;;;;25.63;58.37;99123.13;4972950;28;20101;-85
2021/08/05 11:16:51;;;;;;;18.00;13.70;;;;;;;25.82;57.29;99108.22;4975482;28;20043;-83
2021/08/05 11:19:29;;;;;;;14.18;12.60;;;;;;;25.98;57.18;99109.66;4956713;28;20447;-83
2021/08/05 11:21:57;;;;;;;14.52;12.85;;;;;;;25.82;57.41;99105.53;4974703;28;20066;-82
2021/08/05 11:24:45;;;;;;;20.35;14.13;;;;;;;25.70;57.52;99112.47;4974633;28;20035;-82
2021/08/05 11:27:17;;;;;;;14.25;12.75;;;;;;;26.01;56.94;99104.75;4974884;28;20038;-82
2021/08/05 11:29:45;;;;;;;18.30;11.98;;;;;;;26.21;55.37;99109.28;4972822;28;20051;-81